sensor_id;sensor_type;location;lat;lon;timestamp;temperature;humidity
22984;DHT22;11658;48.908;9.140;2024-01-15T05:00:33;-0.40;99.90
22984;DHT22;11658;48.908;9.140;2024-01-15T05:02:59;-0.40;99.90
22984;DHT22;11658;48.908;9.140;2024-01-15T05:05:24;-0.40;99.90
22984;DHT22;11658;48.908;9.140;2024-01-15T05:07:51;-0.40;99.90
22984;DHT22;11658;48.908;9.140;2024-01-15T05:10:16;-0.40;99.90
22984;DHT22;11658;48.908;9.140;2024-01-15T05:12:42;-0.50;99.90
22984;DHT22;11658;48.908;9.140;2024-01-15T05:15:09;-0.40;99.90
22984;DHT22;11658;48.908;9.140;2024-01-15T05:17:35;-0.50;99.90
22984;DHT22;11658;48.908;9.140;2024-01-15T05:20:00;-0.50;99.90
22984;DHT22;11658;48.908;9.140;2024-01-15T05:22:26;-0.40;99.90
22984;DHT22;11658;48.908;9.140;2024-01-15T05:24:51;-0.40;99.90
22984;DHT22;11658;48.908;9.140;2024-01-15T05:27:17;-0.40;99.90
22984;DHT22;11658;48.908;9.140;2024-01-15T05:29:43;-0.40;99.90
22984;DHT22;11658;48.908;9.140;2024-01-15T05:32:08;-0.40;99.90
22984;DHT22;11658;48.908;9.140;2024-01-15T05:34:34;-0.40;99.90
22984;DHT22;11658;48.908;9.140;2024-01-15T05:37:00;-0.40;99.90
22984;DHT22;11658;48.908;9.140;2024-01-15T05:39:25;-0.30;99.90
22984;DHT22;11658;48.908;9.140;2024-01-15T05:41:51;-0.30;99.90
22984;DHT22;11658;48.908;9.140;2024-01-15T05:44:17;-0.30;99.90
22984;DHT22;11658;48.908;9.140;2024-01-15T05:46:43;-0.40;99.90
22984;DHT22;11658;48.908;9.140;2024-01-15T05:49:08;-0.30;99.90
22984;DHT22;11658;48.908;9.140;2024-01-15T05:51:34;-0.30;99.90
22984;DHT22;11658;48.908;9.140;2024-01-15T05:53:59;-0.30;99.90
22984;DHT22;11658;48.908;9.140;2024-01-15T05:56:25;-0.30;99.90
22984;DHT22;11658;48.908;9.140;2024-01-15T05:58:51;-0.30;99.90
22984;DHT22;11658;48.908;9.140;2024-01-15T06:01:16;-0.30;99.90
22984;DHT22;11658;48.908;9.140;2024-01-15T06:03:42;-0.30;99.90
22984;DHT22;11658;48.908;9.140;2024-01-15T06:06:09;-0.30;99.90
22984;DHT22;11658;48.908;9.140;2024-01-15T06:08:34;-0.30;99.90
22984;DHT22;11658;48.908;9.140;2024-01-15T06:11:00;-0.30;99.90
22984;DHT22;11658;48.908;9.140;2024-01-15T06:13:26;-0.30;99.90
22984;DHT22;11658;48.908;9.140;2024-01-15T06:15:51;-0.30;99.90
22984;DHT22;11658;48.908;9.140;2024-01-15T06:18:17;-0.30;99.90
22984;DHT22;11658;48.908;9.140;2024-01-15T06:20:42;-0.30;99.90
22984;DHT22;11658;48.908;9.140;2024-01-15T06:23:08;-0.30;99.90
22984;DHT22;11658;48.908;9.140;2024-01-15T06:25:34;-0.30;99.90
22984;DHT22;11658;48.908;9.140;2024-01-15T06:27:59;-0.30;99.90
22984;DHT22;11658;48.908;9.140;2024-01-15T06:30:25;-0.30;99.90
22984;DHT22;11658;48.908;9.140;2024-01-15T06:32:50;-0.30;99.90
22984;DHT22;11658;48.908;9.140;2024-01-15T06:35:16;-0.30;99.90
22984;DHT22;11658;48.908;9.140;2024-01-15T06:37:42;-0.30;99.90
22984;DHT22;11658;48.908;9.140;2024-01-15T06:40:08;-0.30;99.90
22984;DHT22;11658;48.908;9.140;2024-01-15T06:42:34;-0.30;99.90
22984;DHT22;11658;48.908;9.140;2024-01-15T06:44:59;-0.30;99.90
22984;DHT22;11658;48.908;9.140;2024-01-15T06:47:25;-0.30;99.90
22984;DHT22;11658;48.908;9.140;2024-01-15T06:49:50;-0.40;99.90
22984;DHT22;11658;48.908;9.140;2024-01-15T06:52:17;-0.40;99.90
22984;DHT22;11658;48.908;9.140;2024-01-15T06:54:43;-0.30;99.90
22984;DHT22;11658;48.908;9.140;2024-01-15T06:57:08;-0.40;99.90
22984;DHT22;11658;48.908;9.140;2024-01-15T06:59:34;-0.40;99.90
22984;DHT22;11658;48.908;9.140;2024-01-15T07:02:01;-0.30;99.90
22984;DHT22;11658;48.908;9.140;2024-01-15T07:04:26;-0.30;99.90
22984;DHT22;11658;48.908;9.140;2024-01-15T07:06:52;0.20;99.90
22984;DHT22;11658;48.908;9.140;2024-01-15T07:09:18;-0.30;99.90
22984;DHT22;11658;48.908;9.140;2024-01-15T07:11:46;-0.30;99.90
22984;DHT22;11658;48.908;9.140;2024-01-15T07:14:12;-0.30;99.90
22984;DHT22;11658;48.908;9.140;2024-01-15T07:16:38;-0.30;99.90
22984;DHT22;11658;48.908;9.140;2024-01-15T07:19:04;-0.30;99.90
22984;DHT22;11658;48.908;9.140;2024-01-15T07:21:30;-0.20;99.90
22984;DHT22;11658;48.908;9.140;2024-01-15T07:23:55;-0.20;99.90
22984;DHT22;11658;48.908;9.140;2024-01-15T07:26:22;-0.20;99.90
22984;DHT22;11658;48.908;9.140;2024-01-15T07:28:47;-0.20;99.90
22984;DHT22;11658;48.908;9.140;2024-01-15T07:31:15;-0.10;99.90
22984;DHT22;11658;48.908;9.140;2024-01-15T07:33:41;-0.10;99.90
22984;DHT22;11658;48.908;9.140;2024-01-15T07:36:07;-0.10;99.90
22984;DHT22;11658;48.908;9.140;2024-01-15T07:38:32;-0.10;99.90
22984;DHT22;11658;48.908;9.140;2024-01-15T07:40:58;-0.10;99.90
22984;DHT22;11658;48.908;9.140;2024-01-15T07:43:23;0.00;99.90
22984;DHT22;11658;48.908;9.140;2024-01-15T07:45:49;0.00;99.90
22984;DHT22;11658;48.908;9.140;2024-01-15T07:48:15;0.00;99.90
22984;DHT22;11658;48.908;9.140;2024-01-15T07:50:40;0.10;99.90
22984;DHT22;11658;48.908;9.140;2024-01-15T07:53:06;0.10;99.90
22984;DHT22;11658;48.908;9.140;2024-01-15T07:55:31;0.10;99.90
22984;DHT22;11658;48.908;9.140;2024-01-15T07:57:57;0.20;99.90
22984;DHT22;11658;48.908;9.140;2024-01-15T08:00:25;0.10;99.90
22984;DHT22;11658;48.908;9.140;2024-01-15T08:02:50;0.20;99.90
22984;DHT22;11658;48.908;9.140;2024-01-15T08:05:17;0.20;99.90
22984;DHT22;11658;48.908;9.140;2024-01-15T08:07:42;0.20;99.90
22984;DHT22;11658;48.908;9.140;2024-01-15T08:10:08;0.10;99.90
22984;DHT22;11658;48.908;9.140;2024-01-15T08:12:34;0.20;99.90
22984;DHT22;11658;48.908;9.140;2024-01-15T08:14:59;0.20;99.90
22984;DHT22;11658;48.908;9.140;2024-01-15T08:17:25;0.20;99.90
22984;DHT22;11658;48.908;9.140;2024-01-15T08:19:54;0.30;99.90
22984;DHT22;11658;48.908;9.140;2024-01-15T08:22:20;0.30;99.90
22984;DHT22;11658;48.908;9.140;2024-01-15T08:24:45;0.30;99.90
22984;DHT22;11658;48.908;9.140;2024-01-15T08:27:11;0.30;99.90
22984;DHT22;11658;48.908;9.140;2024-01-15T08:29:36;0.30;99.90
22984;DHT22;11658;48.908;9.140;2024-01-15T08:32:02;0.30;99.90
22984;DHT22;11658;48.908;9.140;2024-01-15T08:34:28;0.40;99.90
22984;DHT22;11658;48.908;9.140;2024-01-15T08:36:54;0.30;99.90
22984;DHT22;11658;48.908;9.140;2024-01-15T08:39:19;0.30;99.90
22984;DHT22;11658;48.908;9.140;2024-01-15T08:41:45;0.40;99.90
22984;DHT22;11658;48.908;9.140;2024-01-15T08:44:12;0.40;99.90
22984;DHT22;11658;48.908;9.140;2024-01-15T08:46:38;0.40;99.90
22984;DHT22;11658;48.908;9.140;2024-01-15T08:49:03;0.40;99.90
22984;DHT22;11658;48.908;9.140;2024-01-15T08:51:29;0.40;99.90
22984;DHT22;11658;48.908;9.140;2024-01-15T08:53:56;0.40;99.90
22984;DHT22;11658;48.908;9.140;2024-01-15T08:56:22;0.40;99.90
22984;DHT22;11658;48.908;9.140;2024-01-15T08:58:47;0.40;99.90
22984;DHT22;11658;48.908;9.140;2024-01-15T09:01:13;0.50;99.90
22984;DHT22;11658;48.908;9.140;2024-01-15T09:03:40;0.50;99.90
22984;DHT22;11658;48.908;9.140;2024-01-15T09:06:08;0.50;99.90
22984;DHT22;11658;48.908;9.140;2024-01-15T09:08:35;0.60;99.90
22984;DHT22;11658;48.908;9.140;2024-01-15T09:11:00;0.70;99.90
22984;DHT22;11658;48.908;9.140;2024-01-15T09:13:28;0.70;99.90
22984;DHT22;11658;48.908;9.140;2024-01-15T09:15:53;0.70;99.90
22984;DHT22;11658;48.908;9.140;2024-01-15T09:18:19;0.80;99.90
22984;DHT22;11658;48.908;9.140;2024-01-15T09:20:45;0.80;99.90
22984;DHT22;11658;48.908;9.140;2024-01-15T09:23:10;0.90;99.90
22984;DHT22;11658;48.908;9.140;2024-01-15T09:25:36;0.80;99.90
22984;DHT22;11658;48.908;9.140;2024-01-15T09:28:01;0.80;99.90
22984;DHT22;11658;48.908;9.140;2024-01-15T09:30:27;0.80;99.90
22984;DHT22;11658;48.908;9.140;2024-01-15T09:32:53;0.90;99.90
22984;DHT22;11658;48.908;9.140;2024-01-15T09:35:18;0.90;99.90
22984;DHT22;11658;48.908;9.140;2024-01-15T09:37:44;1.00;99.90
22984;DHT22;11658;48.908;9.140;2024-01-15T09:40:13;1.10;99.90
22984;DHT22;11658;48.908;9.140;2024-01-15T09:42:40;1.10;99.90
22984;DHT22;11658;48.908;9.140;2024-01-15T09:45:06;1.10;99.90
22984;DHT22;11658;48.908;9.140;2024-01-15T09:47:32;1.10;99.90
22984;DHT22;11658;48.908;9.140;2024-01-15T09:49:58;1.20;99.90
22984;DHT22;11658;48.908;9.140;2024-01-15T09:52:24;1.20;99.90
22984;DHT22;11658;48.908;9.140;2024-01-15T09:54:50;1.20;99.90
22984;DHT22;11658;48.908;9.140;2024-01-15T09:57:17;1.40;99.90
22984;DHT22;11658;48.908;9.140;2024-01-15T09:59:43;1.50;99.90
22984;DHT22;11658;48.908;9.140;2024-01-15T10:02:13;1.50;99.90
22984;DHT22;11658;48.908;9.140;2024-01-15T10:04:42;1.60;99.90
22984;DHT22;11658;48.908;9.140;2024-01-15T10:07:09;1.40;99.90
22984;DHT22;11658;48.908;9.140;2024-01-15T10:09:35;1.40;99.90
22984;DHT22;11658;48.908;9.140;2024-01-15T10:12:01;1.40;99.90
22984;DHT22;11658;48.908;9.140;2024-01-15T10:14:27;1.30;99.90
22984;DHT22;11658;48.908;9.140;2024-01-15T10:16:52;1.20;99.90
22984;DHT22;11658;48.908;9.140;2024-01-15T10:19:18;1.10;99.90
22984;DHT22;11658;48.908;9.140;2024-01-15T10:21:43;1.10;99.90
22984;DHT22;11658;48.908;9.140;2024-01-15T10:24:09;1.10;99.90
22984;DHT22;11658;48.908;9.140;2024-01-15T10:26:34;1.10;99.90
22984;DHT22;11658;48.908;9.140;2024-01-15T10:29:00;1.10;99.90
22984;DHT22;11658;48.908;9.140;2024-01-15T10:31:26;1.10;99.90
22984;DHT22;11658;48.908;9.140;2024-01-15T10:33:52;1.00;99.90
22984;DHT22;11658;48.908;9.140;2024-01-15T10:36:18;1.00;99.90
22984;DHT22;11658;48.908;9.140;2024-01-15T10:38:44;1.40;99.90
22984;DHT22;11658;48.908;9.140;2024-01-15T10:41:10;1.10;99.90
22984;DHT22;11658;48.908;9.140;2024-01-15T10:43:36;1.10;99.90
22984;DHT22;11658;48.908;9.140;2024-01-15T10:46:02;1.00;99.90
22984;DHT22;11658;48.908;9.140;2024-01-15T10:48:28;1.10;99.90
22984;DHT22;11658;48.908;9.140;2024-01-15T10:50:56;1.00;99.90
22984;DHT22;11658;48.908;9.140;2024-01-15T10:53:23;1.00;99.90
22984;DHT22;11658;48.908;9.140;2024-01-15T10:55:50;1.00;99.90
22984;DHT22;11658;48.908;9.140;2024-01-15T10:58:18;0.90;99.90
22984;DHT22;11658;48.908;9.140;2024-01-15T11:00:44;0.90;99.90
22984;DHT22;11658;48.908;9.140;2024-01-15T11:03:10;0.90;99.90
22984;DHT22;11658;48.908;9.140;2024-01-15T11:05:43;0.90;99.90
22984;DHT22;11658;48.908;9.140;2024-01-15T11:08:09;0.80;99.90
22984;DHT22;11658;48.908;9.140;2024-01-15T11:13:19;0.40;99.90
22984;DHT22;11658;48.908;9.140;2024-01-15T11:18:25;0.10;99.90
22984;DHT22;11658;48.908;9.140;2024-01-15T11:21:19;0.10;99.90
22984;DHT22;11658;48.908;9.140;2024-01-15T11:23:46;0.10;99.90
22984;DHT22;11658;48.908;9.140;2024-01-15T11:29:02;0.10;99.90
22984;DHT22;11658;48.908;9.140;2024-01-15T11:34:07;0.10;99.90
22984;DHT22;11658;48.908;9.140;2024-01-15T11:42:01;0.20;99.90
22984;DHT22;11658;48.908;9.140;2024-01-15T11:44:28;0.10;99.90
22984;DHT22;11658;48.908;9.140;2024-01-15T11:52:07;0.10;99.90
22984;DHT22;11658;48.908;9.140;2024-01-15T11:54:38;0.10;99.90
22984;DHT22;11658;48.908;9.140;2024-01-15T11:57:09;0.10;99.90
22984;DHT22;11658;48.908;9.140;2024-01-15T11:59:36;0.10;99.90
22984;DHT22;11658;48.908;9.140;2024-01-15T12:02:02;0.00;99.90
22984;DHT22;11658;48.908;9.140;2024-01-15T12:04:28;0.00;99.90
22984;DHT22;11658;48.908;9.140;2024-01-15T12:06:53;0.00;99.90
22984;DHT22;11658;48.908;9.140;2024-01-15T12:09:19;0.10;99.90
22984;DHT22;11658;48.908;9.140;2024-01-15T12:11:53;0.10;99.90
22984;DHT22;11658;48.908;9.140;2024-01-15T12:14:21;0.00;99.90
22984;DHT22;11658;48.908;9.140;2024-01-15T12:16:47;0.00;99.90
22984;DHT22;11658;48.908;9.140;2024-01-15T12:19:14;0.00;99.90
22984;DHT22;11658;48.908;9.140;2024-01-15T12:21:39;0.10;99.90
22984;DHT22;11658;48.908;9.140;2024-01-15T12:24:07;0.00;99.90
22984;DHT22;11658;48.908;9.140;2024-01-15T12:26:33;0.10;99.90
22984;DHT22;11658;48.908;9.140;2024-01-15T12:29:02;0.10;99.90
22984;DHT22;11658;48.908;9.140;2024-01-15T12:31:29;0.10;99.90
22984;DHT22;11658;48.908;9.140;2024-01-15T12:33:56;0.10;99.90
22984;DHT22;11658;48.908;9.140;2024-01-15T12:36:21;0.20;99.90
22984;DHT22;11658;48.908;9.140;2024-01-15T12:38:47;0.20;99.90
22984;DHT22;11658;48.908;9.140;2024-01-15T12:41:12;1.00;99.90
22984;DHT22;11658;48.908;9.140;2024-01-15T12:43:38;0.20;99.90
22984;DHT22;11658;48.908;9.140;2024-01-15T12:46:06;0.20;99.90
22984;DHT22;11658;48.908;9.140;2024-01-15T12:48:31;0.20;99.90
22984;DHT22;11658;48.908;9.140;2024-01-15T12:50:57;0.20;99.90
22984;DHT22;11658;48.908;9.140;2024-01-15T12:53:22;0.20;99.90
22984;DHT22;11658;48.908;9.140;2024-01-15T12:55:48;0.30;99.90
22984;DHT22;11658;48.908;9.140;2024-01-15T12:58:13;0.40;99.90
22984;DHT22;11658;48.908;9.140;2024-01-15T13:00:39;0.30;99.90
22984;DHT22;11658;48.908;9.140;2024-01-15T13:03:05;0.40;99.90
22984;DHT22;11658;48.908;9.140;2024-01-15T13:05:32;0.40;99.90
22984;DHT22;11658;48.908;9.140;2024-01-15T13:07:59;0.40;99.90
22984;DHT22;11658;48.908;9.140;2024-01-15T13:10:25;0.50;99.90
22984;DHT22;11658;48.908;9.140;2024-01-15T13:12:50;0.60;99.90
22984;DHT22;11658;48.908;9.140;2024-01-15T13:15:16;0.60;99.90
22984;DHT22;11658;48.908;9.140;2024-01-15T13:17:42;0.50;99.90
22984;DHT22;11658;48.908;9.140;2024-01-15T13:20:08;0.50;99.90
22984;DHT22;11658;48.908;9.140;2024-01-15T13:22:34;0.40;99.90
22984;DHT22;11658;48.908;9.140;2024-01-15T13:25:00;0.50;99.90
22984;DHT22;11658;48.908;9.140;2024-01-15T13:27:26;0.40;99.90
22984;DHT22;11658;48.908;9.140;2024-01-15T13:29:51;0.50;99.90
22984;DHT22;11658;48.908;9.140;2024-01-15T13:32:28;0.50;99.90
22984;DHT22;11658;48.908;9.140;2024-01-15T13:34:57;0.50;99.90
22984;DHT22;11658;48.908;9.140;2024-01-15T13:37:23;0.50;99.90
22984;DHT22;11658;48.908;9.140;2024-01-15T13:39:50;0.50;99.90
22984;DHT22;11658;48.908;9.140;2024-01-15T13:42:17;0.50;99.90
22984;DHT22;11658;48.908;9.140;2024-01-15T13:44:43;0.50;99.90
22984;DHT22;11658;48.908;9.140;2024-01-15T13:47:08;0.50;99.90
22984;DHT22;11658;48.908;9.140;2024-01-15T13:49:34;0.50;99.90
22984;DHT22;11658;48.908;9.140;2024-01-15T13:52:02;0.50;99.90
22984;DHT22;11658;48.908;9.140;2024-01-15T13:54:29;0.50;99.90
22984;DHT22;11658;48.908;9.140;2024-01-15T13:56:55;0.50;99.90
22984;DHT22;11658;48.908;9.140;2024-01-15T13:59:21;0.50;99.90
22984;DHT22;11658;48.908;9.140;2024-01-15T14:01:46;0.50;99.90
22984;DHT22;11658;48.908;9.140;2024-01-15T14:04:13;0.50;99.90
22984;DHT22;11658;48.908;9.140;2024-01-15T14:06:39;0.50;99.90
22984;DHT22;11658;48.908;9.140;2024-01-15T14:09:04;0.50;99.90
22984;DHT22;11658;48.908;9.140;2024-01-15T14:11:30;0.50;99.90
22984;DHT22;11658;48.908;9.140;2024-01-15T14:13:56;0.50;99.90
22984;DHT22;11658;48.908;9.140;2024-01-15T14:16:22;0.40;99.90
22984;DHT22;11658;48.908;9.140;2024-01-15T14:18:48;0.40;99.90
22984;DHT22;11658;48.908;9.140;2024-01-15T14:21:13;0.40;99.90
22984;DHT22;11658;48.908;9.140;2024-01-15T14:23:39;0.40;99.90
22984;DHT22;11658;48.908;9.140;2024-01-15T14:26:05;0.40;99.90
22984;DHT22;11658;48.908;9.140;2024-01-15T14:28:31;0.30;99.90
22984;DHT22;11658;48.908;9.140;2024-01-15T14:30:57;0.30;99.90
22984;DHT22;11658;48.908;9.140;2024-01-15T14:33:25;0.30;99.90
22984;DHT22;11658;48.908;9.140;2024-01-15T14:35:51;0.30;99.90
22984;DHT22;11658;48.908;9.140;2024-01-15T14:38:16;0.20;99.90
22984;DHT22;11658;48.908;9.140;2024-01-15T14:40:42;0.20;99.90
22984;DHT22;11658;48.908;9.140;2024-01-15T14:43:09;0.30;99.90
22984;DHT22;11658;48.908;9.140;2024-01-15T14:45:35;0.30;99.90
22984;DHT22;11658;48.908;9.140;2024-01-15T14:48:01;0.30;99.90
22984;DHT22;11658;48.908;9.140;2024-01-15T14:50:26;0.30;99.90
22984;DHT22;11658;48.908;9.140;2024-01-15T14:52:52;0.30;99.90
22984;DHT22;11658;48.908;9.140;2024-01-15T14:55:17;0.40;99.90
22984;DHT22;11658;48.908;9.140;2024-01-15T14:57:43;0.40;99.90
22984;DHT22;11658;48.908;9.140;2024-01-15T15:00:09;0.30;99.90
22984;DHT22;11658;48.908;9.140;2024-01-15T15:02:35;0.30;99.90
22984;DHT22;11658;48.908;9.140;2024-01-15T15:05:02;0.30;99.90
22984;DHT22;11658;48.908;9.140;2024-01-15T15:07:28;0.30;99.90
22984;DHT22;11658;48.908;9.140;2024-01-15T15:09:53;0.30;99.90
22984;DHT22;11658;48.908;9.140;2024-01-15T15:12:19;0.30;99.90
22984;DHT22;11658;48.908;9.140;2024-01-15T15:14:44;0.30;99.90
22984;DHT22;11658;48.908;9.140;2024-01-15T15:17:10;0.30;99.90
22984;DHT22;11658;48.908;9.140;2024-01-15T15:19:37;0.30;99.90
22984;DHT22;11658;48.908;9.140;2024-01-15T15:22:03;0.20;99.90
22984;DHT22;11658;48.908;9.140;2024-01-15T15:24:29;0.30;99.90
22984;DHT22;11658;48.908;9.140;2024-01-15T15:26:54;0.30;99.90
22984;DHT22;11658;48.908;9.140;2024-01-15T15:29:20;0.20;99.90
22984;DHT22;11658;48.908;9.140;2024-01-15T15:31:46;0.30;99.90
22984;DHT22;11658;48.908;9.140;2024-01-15T15:34:11;0.20;99.90
22984;DHT22;11658;48.908;9.140;2024-01-15T15:36:37;0.30;99.90
22984;DHT22;11658;48.908;9.140;2024-01-15T15:39:03;0.30;99.90
22984;DHT22;11658;48.908;9.140;2024-01-15T15:41:29;0.30;99.90
22984;DHT22;11658;48.908;9.140;2024-01-15T15:43:55;0.20;99.90
22984;DHT22;11658;48.908;9.140;2024-01-15T15:46:20;0.20;99.90
22984;DHT22;11658;48.908;9.140;2024-01-15T15:48:46;0.20;99.90
22984;DHT22;11658;48.908;9.140;2024-01-15T15:51:11;0.20;99.90
22984;DHT22;11658;48.908;9.140;2024-01-15T15:53:37;0.20;99.90
22984;DHT22;11658;48.908;9.140;2024-01-15T15:56:03;0.20;99.90
22984;DHT22;11658;48.908;9.140;2024-01-15T15:58:29;0.20;99.90
22984;DHT22;11658;48.908;9.140;2024-01-15T16:00:54;0.20;99.90
22984;DHT22;11658;48.908;9.140;2024-01-15T16:03:20;0.20;99.90
22984;DHT22;11658;48.908;9.140;2024-01-15T16:05:45;0.10;99.90
22984;DHT22;11658;48.908;9.140;2024-01-15T16:08:11;0.10;99.90
22984;DHT22;11658;48.908;9.140;2024-01-15T16:10:38;0.10;99.90
22984;DHT22;11658;48.908;9.140;2024-01-15T16:13:03;0.10;99.90
22984;DHT22;11658;48.908;9.140;2024-01-15T16:15:29;0.00;99.90
22984;DHT22;11658;48.908;9.140;2024-01-15T16:17:55;0.00;99.90
22984;DHT22;11658;48.908;9.140;2024-01-15T16:20:21;0.00;99.90
22984;DHT22;11658;48.908;9.140;2024-01-15T16:22:46;0.00;99.90
22984;DHT22;11658;48.908;9.140;2024-01-15T16:25:12;-0.10;99.90
22984;DHT22;11658;48.908;9.140;2024-01-15T16:27:38;-0.10;99.90
22984;DHT22;11658;48.908;9.140;2024-01-15T16:30:06;-0.20;99.90
22984;DHT22;11658;48.908;9.140;2024-01-15T16:32:32;-0.30;99.90
22984;DHT22;11658;48.908;9.140;2024-01-15T16:34:58;-0.30;99.90
22984;DHT22;11658;48.908;9.140;2024-01-15T16:37:24;-0.40;99.90
22984;DHT22;11658;48.908;9.140;2024-01-15T16:39:49;-0.40;99.90
22984;DHT22;11658;48.908;9.140;2024-01-15T16:42:15;-0.50;99.90
22984;DHT22;11658;48.908;9.140;2024-01-15T16:44:41;-0.40;99.90
22984;DHT22;11658;48.908;9.140;2024-01-15T16:47:07;-0.40;99.90
22984;DHT22;11658;48.908;9.140;2024-01-15T16:49:32;-0.40;99.90
22984;DHT22;11658;48.908;9.140;2024-01-15T16:51:58;-0.40;99.90
22984;DHT22;11658;48.908;9.140;2024-01-15T16:54:23;-0.30;99.90
22984;DHT22;11658;48.908;9.140;2024-01-15T16:56:49;-0.30;99.90
22984;DHT22;11658;48.908;9.140;2024-01-15T16:59:15;-0.30;99.90
22984;DHT22;11658;48.908;9.140;2024-01-15T17:01:41;-0.20;99.90
22984;DHT22;11658;48.908;9.140;2024-01-15T17:04:06;-0.20;99.90
22984;DHT22;11658;48.908;9.140;2024-01-15T17:06:32;-0.20;99.90
22984;DHT22;11658;48.908;9.140;2024-01-15T17:08:58;-0.10;99.90
22984;DHT22;11658;48.908;9.140;2024-01-15T17:11:24;-0.10;99.90
22984;DHT22;11658;48.908;9.140;2024-01-15T17:13:52;-0.10;99.90
22984;DHT22;11658;48.908;9.140;2024-01-15T17:16:18;-0.20;99.90
22984;DHT22;11658;48.908;9.140;2024-01-15T17:18:44;-0.10;99.90
22984;DHT22;11658;48.908;9.140;2024-01-15T17:21:10;-0.20;99.90
22984;DHT22;11658;48.908;9.140;2024-01-15T17:23:35;-0.20;99.90
22984;DHT22;11658;48.908;9.140;2024-01-15T17:26:02;-0.30;99.90
22984;DHT22;11658;48.908;9.140;2024-01-15T17:28:28;-0.20;99.90
22984;DHT22;11658;48.908;9.140;2024-01-15T17:30:53;-0.30;99.90
22984;DHT22;11658;48.908;9.140;2024-01-15T17:33:20;-0.20;99.90
22984;DHT22;11658;48.908;9.140;2024-01-15T17:35:52;-0.20;99.90
22984;DHT22;11658;48.908;9.140;2024-01-15T17:38:19;-0.10;99.90
22984;DHT22;11658;48.908;9.140;2024-01-15T17:40:45;-0.10;99.90
22984;DHT22;11658;48.908;9.140;2024-01-15T17:43:11;-0.10;99.90
22984;DHT22;11658;48.908;9.140;2024-01-15T17:45:37;-0.10;99.90
22984;DHT22;11658;48.908;9.140;2024-01-15T17:48:04;-0.10;99.90
22984;DHT22;11658;48.908;9.140;2024-01-15T17:50:30;0.00;99.90
22984;DHT22;11658;48.908;9.140;2024-01-15T17:52:55;0.00;99.90
22984;DHT22;11658;48.908;9.140;2024-01-15T17:55:22;0.00;99.90
22984;DHT22;11658;48.908;9.140;2024-01-15T17:57:48;0.00;99.90
22984;DHT22;11658;48.908;9.140;2024-01-15T18:00:15;-0.10;99.90
22984;DHT22;11658;48.908;9.140;2024-01-15T18:02:40;-0.10;99.90
22984;DHT22;11658;48.908;9.140;2024-01-15T18:05:06;-0.10;99.90
22984;DHT22;11658;48.908;9.140;2024-01-15T18:07:32;-0.10;99.90
22984;DHT22;11658;48.908;9.140;2024-01-15T18:09:57;-0.10;99.90
22984;DHT22;11658;48.908;9.140;2024-01-15T18:12:26;-0.20;99.90
22984;DHT22;11658;48.908;9.140;2024-01-15T18:14:53;-0.20;99.90
22984;DHT22;11658;48.908;9.140;2024-01-15T18:17:19;-0.20;99.90
22984;DHT22;11658;48.908;9.140;2024-01-15T18:19:46;-0.30;99.90
22984;DHT22;11658;48.908;9.140;2024-01-15T18:22:12;-0.30;99.90
22984;DHT22;11658;48.908;9.140;2024-01-15T18:24:38;-0.30;99.90
22984;DHT22;11658;48.908;9.140;2024-01-15T18:27:05;-0.30;99.90
22984;DHT22;11658;48.908;9.140;2024-01-15T18:29:31;-0.20;99.90
22984;DHT22;11658;48.908;9.140;2024-01-15T18:31:56;-0.20;99.90
22984;DHT22;11658;48.908;9.140;2024-01-15T18:34:22;-0.20;99.90
22984;DHT22;11658;48.908;9.140;2024-01-15T18:36:48;-0.20;99.90
22984;DHT22;11658;48.908;9.140;2024-01-15T18:39:15;-0.20;99.90
22984;DHT22;11658;48.908;9.140;2024-01-15T18:41:42;-0.20;99.90
22984;DHT22;11658;48.908;9.140;2024-01-15T18:44:08;-0.10;99.90
22984;DHT22;11658;48.908;9.140;2024-01-15T18:46:34;-0.20;99.90
22984;DHT22;11658;48.908;9.140;2024-01-15T18:48:59;-0.10;99.90
22984;DHT22;11658;48.908;9.140;2024-01-15T18:51:25;-0.10;99.90
22984;DHT22;11658;48.908;9.140;2024-01-15T18:53:51;-0.10;99.90
22984;DHT22;11658;48.908;9.140;2024-01-15T18:56:17;-0.10;99.90
22984;DHT22;11658;48.908;9.140;2024-01-15T18:58:43;-0.10;99.90
22984;DHT22;11658;48.908;9.140;2024-01-15T19:01:12;-0.10;99.90
22984;DHT22;11658;48.908;9.140;2024-01-15T19:03:39;0.00;99.90
22984;DHT22;11658;48.908;9.140;2024-01-15T19:06:05;-0.10;99.90
22984;DHT22;11658;48.908;9.140;2024-01-15T19:08:34;0.00;99.90
22984;DHT22;11658;48.908;9.140;2024-01-15T19:10:59;0.00;99.90
22984;DHT22;11658;48.908;9.140;2024-01-15T19:13:25;0.00;99.90
22984;DHT22;11658;48.908;9.140;2024-01-15T19:15:50;0.50;99.90
22984;DHT22;11658;48.908;9.140;2024-01-15T19:18:16;0.00;99.90
22984;DHT22;11658;48.908;9.140;2024-01-15T19:20:42;0.00;99.90
22984;DHT22;11658;48.908;9.140;2024-01-15T19:23:07;0.10;99.90
22984;DHT22;11658;48.908;9.140;2024-01-15T19:25:34;0.10;99.90
22984;DHT22;11658;48.908;9.140;2024-01-15T19:27:59;0.10;99.90
22984;DHT22;11658;48.908;9.140;2024-01-15T19:30:25;0.10;99.90
22984;DHT22;11658;48.908;9.140;2024-01-15T19:32:51;0.00;99.90
22984;DHT22;11658;48.908;9.140;2024-01-15T19:35:17;0.00;99.90
22984;DHT22;11658;48.908;9.140;2024-01-15T19:37:42;0.00;99.90
22984;DHT22;11658;48.908;9.140;2024-01-15T19:40:08;0.00;99.90
22984;DHT22;11658;48.908;9.140;2024-01-15T19:42:34;0.00;99.90
22984;DHT22;11658;48.908;9.140;2024-01-15T19:44:59;0.10;99.90
22984;DHT22;11658;48.908;9.140;2024-01-15T19:47:25;0.10;99.90
22984;DHT22;11658;48.908;9.140;2024-01-15T19:49:51;0.00;99.90
22984;DHT22;11658;48.908;9.140;2024-01-15T19:52:16;0.00;99.90
22984;DHT22;11658;48.908;9.140;2024-01-15T19:54:42;0.00;99.90
22984;DHT22;11658;48.908;9.140;2024-01-15T19:57:07;0.00;99.90
22984;DHT22;11658;48.908;9.140;2024-01-15T19:59:34;0.00;99.90
22984;DHT22;11658;48.908;9.140;2024-01-15T20:01:59;0.00;99.90
22984;DHT22;11658;48.908;9.140;2024-01-15T20:04:25;0.00;99.90
22984;DHT22;11658;48.908;9.140;2024-01-15T20:06:51;0.00;99.90
22984;DHT22;11658;48.908;9.140;2024-01-15T20:09:17;0.00;99.90
22984;DHT22;11658;48.908;9.140;2024-01-15T20:11:44;0.00;99.90
22984;DHT22;11658;48.908;9.140;2024-01-15T20:14:11;0.00;99.90
22984;DHT22;11658;48.908;9.140;2024-01-15T20:16:37;0.00;99.90
22984;DHT22;11658;48.908;9.140;2024-01-15T20:19:04;0.00;99.90
22984;DHT22;11658;48.908;9.140;2024-01-15T20:21:32;0.00;99.90
22984;DHT22;11658;48.908;9.140;2024-01-15T20:23:57;0.00;99.90
22984;DHT22;11658;48.908;9.140;2024-01-15T20:26:23;0.00;99.90
22984;DHT22;11658;48.908;9.140;2024-01-15T20:28:50;0.00;99.90
22984;DHT22;11658;48.908;9.140;2024-01-15T20:31:16;0.00;99.90
22984;DHT22;11658;48.908;9.140;2024-01-15T20:33:42;0.00;99.90
22984;DHT22;11658;48.908;9.140;2024-01-15T20:36:08;0.00;99.90
22984;DHT22;11658;48.908;9.140;2024-01-15T20:38:34;0.00;99.90
22984;DHT22;11658;48.908;9.140;2024-01-15T20:41:01;0.00;99.90
22984;DHT22;11658;48.908;9.140;2024-01-15T20:43:27;0.00;99.90
22984;DHT22;11658;48.908;9.140;2024-01-15T20:45:54;0.10;99.90
22984;DHT22;11658;48.908;9.140;2024-01-15T20:48:19;0.00;99.90
22984;DHT22;11658;48.908;9.140;2024-01-15T20:50:45;0.00;99.90
22984;DHT22;11658;48.908;9.140;2024-01-15T20:53:10;0.00;99.90